Time;durP1;ratioP1;P1;durP2;ratioP2;P2;SDS_P1;SDS_P2;PMS_P1;PMS_P2;Temp;Humidity;BMP_temperature;BMP_pressure;BME280_temperature;BME280_humidity;BME280_pressure;Samples;Min_cycle;Max_cycle;Signal;HPM_P1;HPM_P2
2023/08/21 00:01:12;;;;;;;1.63;1.20;;;19.90;48.90;;;;;;5033252;28;20164;-63
2023/08/21 00:03:40;;;;;;;2.58;1.30;;;20.60;48.40;;;;;;5033202;28;20068;-59
2023/08/21 00:06:08;;;;;;;2.08;1.27;;;20.20;47.10;;;;;;5033241;28;20025;-59
2023/08/21 00:08:35;;;;;;;1.88;1.25;;;20.90;48.30;;;;;;5017550;28;20030;-60
2023/08/21 00:11:03;;;;;;;1.75;1.20;;;20.30;47.80;;;;;;5033031;28;20076;-59
2023/08/21 00:13:30;;;;;;;2.10;1.40;;;21.00;46.90;;;;;;5017385;28;20105;-60
2023/08/21 00:15:58;;;;;;;2.08;1.25;;;20.80;47.10;;;;;;5032843;28;20338;-61
2023/08/21 00:18:26;;;;;;;2.65;1.30;;;21.10;47.50;;;;;;5016415;28;20026;-61
2023/08/21 00:20:53;;;;;;;1.73;1.35;;;21.80;45.00;;;;;;5032592;28;20065;-60
2023/08/21 00:23:21;;;;;;;1.90;1.25;;;22.30;43.90;;;;;;5017132;28;20040;-63
2023/08/21 00:25:49;;;;;;;2.70;1.15;;;22.20;44.00;;;;;;5016320;28;20026;-63
2023/08/21 00:28:17;;;;;;;3.35;1.17;;;22.90;42.60;;;;;;5016883;28;20033;-62
2023/08/21 00:30:45;;;;;;;2.97;1.27;;;23.00;43.00;;;;;;5017121;28;20026;-62
2023/08/21 00:33:12;;;;;;;3.33;1.20;;;22.60;43.20;;;;;;5032421;28;20052;-62
2023/08/21 00:35:40;;;;;;;2.33;1.30;;;21.80;44.10;;;;;;5032664;28;20022;-63
2023/08/21 00:38:08;;;;;;;2.00;1.17;;;21.90;44.10;;;;;;5032318;28;20333;-62
2023/08/21 00:40:35;;;;;;;2.75;1.25;;;22.00;43.90;;;;;;5016809;28;20097;-62
2023/08/21 00:43:04;;;;;;;1.85;1.10;;;22.60;42.90;;;;;;5032406;28;20041;-63
2023/08/21 00:45:32;;;;;;;4.20;1.23;;;21.60;44.20;;;;;;5032481;28;20061;-59
2023/08/21 00:48:00;;;;;;;1.85;0.93;;;21.40;45.40;;;;;;5032283;28;20025;-59
2023/08/21 00:50:28;;;;;;;2.47;1.20;;;20.60;47.00;;;;;;5015769;28;20337;-60
2023/08/21 00:52:55;;;;;;;1.35;1.00;;;22.00;45.00;;;;;;5031896;28;20058;-60
2023/08/21 00:55:23;;;;;;;2.45;1.10;;;21.70;44.00;;;;;;5032235;28;20400;-60
2023/08/21 00:57:51;;;;;;;2.03;1.20;;;21.00;46.30;;;;;;5032159;28;20348;-60
2023/08/21 01:00:19;;;;;;;3.10;0.95;;;21.70;45.00;;;;;;5032246;28;20078;-61
2023/08/21 01:02:47;;;;;;;2.40;1.00;;;22.40;44.10;;;;;;5016741;28;20444;-63
2023/08/21 01:05:17;;;;;;;2.15;1.00;;;22.60;43.20;;;;;;5032098;28;20036;-60
2023/08/21 01:08:04;;;;;;;0.85;0.70;;;22.80;42.80;;;;;;5016374;28;20484;-63
2023/08/21 01:10:34;;;;;;;1.65;0.85;;;22.90;42.20;;;;;;5031838;28;20026;-60
2023/08/21 01:13:27;;;;;;;1.73;1.20;;;23.40;42.10;;;;;;5015364;28;20072;-60
2023/08/21 01:15:57;;;;;;;4.85;1.10;;;23.90;42.10;;;;;;5015317;28;20029;-60
2023/08/21 01:18:26;;;;;;;1.63;1.20;;;23.20;41.70;;;;;;5031634;28;20448;-59
2023/08/21 01:20:54;;;;;;;1.90;0.90;;;23.80;41.80;;;;;;5031428;28;20129;-60
2023/08/21 01:23:36;;;;;;;1.52;0.93;;;23.90;41.90;;;;;;5031629;28;20034;-60
2023/08/21 01:26:04;;;;;;;1.88;1.10;;;24.30;39.80;;;;;;5031666;28;20037;-60
2023/08/21 01:28:33;;;;;;;2.78;1.10;;;24.10;40.80;;;;;;5031357;28;20448;-60
2023/08/21 01:31:10;;;;;;;1.38;0.80;;;23.30;42.40;;;;;;5031458;28;20058;-61
2023/08/21 01:34:01;;;;;;;1.33;1.00;;;23.50;40.40;;;;;;5014931;28;20069;-59
2023/08/21 01:36:29;;;;;;;1.33;0.88;;;23.60;41.00;;;;;;5001536;28;20036;-60
2023/08/21 01:38:58;;;;;;;1.63;0.98;;;24.30;41.40;;;;;;5015997;28;20399;-60
2023/08/21 01:41:26;;;;;;;1.10;0.98;;;23.70;40.50;;;;;;5015899;28;20383;-60
2023/08/21 01:43:53;;;;;;;1.45;0.90;;;23.10;42.20;;;;;;5014794;28;20056;-59
2023/08/21 01:46:21;;;;;;;1.42;0.85;;;23.10;42.70;;;;;;5031263;28;20364;-60
2023/08/21 01:48:49;;;;;;;2.42;0.90;;;22.70;42.50;;;;;;5015729;28;20029;-61
2023/08/21 01:51:16;;;;;;;2.13;0.93;;;23.10;40.70;;;;;;5015665;28;20038;-61
2023/08/21 01:53:44;;;;;;;2.85;0.85;;;23.60;41.20;;;;;;5014610;28;20048;-60
2023/08/21 01:56:12;;;;;;;2.95;0.85;;;24.40;40.40;;;;;;5015539;28;20018;-60
2023/08/21 01:58:39;;;;;;;1.70;0.88;;;24.00;39.90;;;;;;5030999;28;20025;-60
2023/08/21 02:01:07;;;;;;;1.92;0.90;;;23.90;40.00;;;;;;5030873;28;20030;-60
2023/08/21 02:03:37;;;;;;;1.25;0.73;;;23.80;39.30;;;;;;5030062;28;20037;-60
2023/08/21 02:06:10;;;;;;;2.90;0.85;;;22.80;40.90;;;;;;5016317;28;20061;-58
2023/08/21 02:08:37;;;;;;;1.48;0.90;;;23.70;41.30;;;;;;5016594;28;20048;-63
2023/08/21 02:11:05;;;;;;;1.67;0.73;;;24.30;39.60;;;;;;5030742;28;20021;-61
2023/08/21 02:13:32;;;;;;;1.00;0.73;;;23.60;39.60;;;;;;5030535;28;20428;-61
2023/08/21 02:16:00;;;;;;;1.65;0.70;;;23.90;39.20;;;;;;5015456;28;20018;-66
2023/08/21 02:18:28;;;;;;;0.70;0.68;;;24.10;40.90;;;;;;5030666;28;20026;-66
2023/08/21 02:20:55;;;;;;;0.98;0.70;;;23.70;39.90;;;;;;5034295;28;20155;-66
2023/08/21 02:23:24;;;;;;;1.58;0.93;;;23.70;39.90;;;;;;5034058;28;20036;-62
2023/08/21 02:25:52;;;;;;;2.80;0.80;;;24.20;39.70;;;;;;5017717;28;20160;-62
2023/08/21 02:28:19;;;;;;;1.63;1.00;;;24.00;38.50;;;;;;5035139;28;20029;-63
2023/08/21 02:30:47;;;;;;;1.00;0.70;;;23.30;40.10;;;;;;5033975;28;20035;-61
2023/08/21 02:33:15;;;;;;;1.30;0.85;;;23.40;40.10;;;;;;5017479;28;20464;-66
2023/08/21 02:35:42;;;;;;;0.82;0.70;;;23.40;41.70;;;;;;5017613;28;20021;-67
2023/08/21 02:38:10;;;;;;;0.88;0.70;;;23.50;39.70;;;;;;5034604;28;20014;-66
2023/08/21 02:40:37;;;;;;;2.90;1.00;;;23.50;41.10;;;;;;5033613;28;20061;-66
2023/08/21 02:43:05;;;;;;;1.20;0.73;;;23.50;40.60;;;;;;5034631;28;20029;-66
2023/08/21 02:45:32;;;;;;;1.15;0.60;;;24.00;39.70;;;;;;5034648;28;20347;-66
2023/08/21 02:48:00;;;;;;;0.60;0.50;;;24.30;39.10;;;;;;5017438;28;20078;-64
2023/08/21 02:50:27;;;;;;;1.35;0.60;;;24.60;39.00;;;;;;5033706;28;20029;-65
2023/08/21 02:52:56;;;;;;;1.27;0.85;;;24.10;39.10;;;;;;5033727;28;20064;-64
2023/08/21 02:55:24;;;;;;;2.15;1.20;;;24.10;39.50;;;;;;5017345;28;20021;-63
2023/08/21 02:57:51;;;;;;;1.15;0.80;;;23.80;39.60;;;;;;5017315;28;20355;-62
2023/08/21 03:00:19;;;;;;;0.90;0.70;;;24.10;39.30;;;;;;5033910;28;20025;-65
2023/08/21 03:02:47;;;;;;;1.48;0.70;;;23.60;39.00;;;;;;5033505;28;20061;-66
2023/08/21 03:05:14;;;;;;;1.23;0.63;;;23.70;39.70;;;;;;5017167;28;20022;-65
2023/08/21 03:07:42;;;;;;;1.92;0.70;;;23.60;39.10;;;;;;5017076;28;20363;-64
2023/08/21 03:10:10;;;;;;;1.10;0.60;;;23.90;39.30;;;;;;5032920;28;20051;-64
2023/08/21 03:12:38;;;;;;;0.60;0.50;;;24.00;39.60;;;;;;5033394;28;20108;-64
2023/08/21 03:15:07;;;;;;;4.50;0.55;;;23.70;38.70;;;;;;5018144;28;20025;-65
2023/08/21 03:17:34;;;;;;;2.17;0.50;;;23.40;39.10;;;;;;5037346;28;20021;-66
2023/08/21 03:20:04;;;;;;;2.22;0.50;;;23.80;39.50;;;;;;5038175;28;20120;-64
2023/08/21 03:22:32;;;;;;;0.75;0.50;;;23.60;38.80;;;;;;5038618;28;20021;-64
2023/08/21 03:25:00;;;;;;;2.05;0.70;;;23.30;39.80;;;;;;5037132;28;20030;-65
2023/08/21 03:27:30;;;;;;;1.38;0.43;;;23.90;38.60;;;;;;5037655;28;20025;-62
2023/08/21 03:30:00;;;;;;;1.42;0.60;;;24.00;38.30;;;;;;5038601;28;20088;-67
2023/08/21 03:32:28;;;;;;;1.90;0.75;;;23.80;38.90;;;;;;5036538;28;20029;-67
2023/08/21 03:34:56;;;;;;;1.17;0.50;;;24.40;39.40;;;;;;5020571;28;20444;-71
2023/08/21 03:37:27;;;;;;;0.80;0.60;;;24.90;37.60;;;;;;5039796;28;20394;-70
2023/08/21 03:39:55;;;;;;;1.42;0.57;;;24.90;37.50;;;;;;5038630;28;20032;-67
2023/08/21 03:42:23;;;;;;;3.28;0.90;;;24.60;37.30;;;;;;5020421;28;20032;-67
2023/08/21 03:44:59;;;;;;;0.90;0.60;;;24.20;38.20;;;;;;5038987;28;20423;-66
2023/08/21 03:47:30;;;;;;;2.50;0.90;;;24.60;37.70;;;;;;5039868;28;20021;-65
2023/08/21 03:50:02;;;;;;;2.50;0.95;;;24.10;38.70;;;;;;5039607;28;20024;-65
2023/08/21 03:52:34;;;;;;;0.95;0.60;;;24.70;37.60;;;;;;5021842;28;20475;-68
2023/08/21 03:55:07;;;;;;;1.23;0.52;;;24.80;38.10;;;;;;5037629;28;20026;-68
2023/08/21 03:57:44;;;;;;;1.25;0.52;;;24.10;38.40;;;;;;5039375;28;20033;-67
2023/08/21 04:00:18;;;;;;;1.05;0.50;;;23.30;43.90;;;;;;5039143;28;20026;-60
2023/08/21 04:02:55;;;;;;;0.47;0.40;;;23.40;39.60;;;;;;5038969;28;20048;-57
2023/08/21 04:05:28;;;;;;;0.60;0.60;;;23.40;39.20;;;;;;5022342;28;20439;-65
2023/08/21 04:07:56;;;;;;;0.60;0.50;;;23.30;39.60;;;;;;5038852;28;20353;-66
2023/08/21 04:10:23;;;;;;;1.58;0.57;;;23.50;39.10;;;;;;5020500;28;20022;-60
2023/08/21 04:12:51;;;;;;;0.90;0.50;;;23.70;39.10;;;;;;5019706;28;20080;-60
2023/08/21 04:15:18;;;;;;;0.75;0.40;;;23.60;38.10;;;;;;5019692;28;20040;-60
2023/08/21 04:17:46;;;;;;;1.30;0.50;;;23.90;39.70;;;;;;5019883;28;20070;-58
2023/08/21 04:20:14;;;;;;;2.40;0.55;;;24.10;37.10;;;;;;5037029;28;20045;-60
2023/08/21 04:22:41;;;;;;;0.63;0.45;;;23.80;38.40;;;;;;5037177;28;20105;-60
2023/08/21 04:25:09;;;;;;;1.33;0.70;;;24.00;37.60;;;;;;5036039;28;20083;-60
2023/08/21 04:27:37;;;;;;;0.60;0.60;;;24.30;39.90;;;;;;5018018;28;20136;-60
2023/08/21 04:30:06;;;;;;;0.82;0.50;;;24.10;36.60;;;;;;5036877;28;20390;-60
2023/08/21 04:32:33;;;;;;;1.13;0.50;;;24.20;37.70;;;;;;5019323;28;20112;-59
2023/08/21 04:35:01;;;;;;;1.15;0.90;;;24.10;37.20;;;;;;5019267;28;20451;-59
2023/08/21 04:37:32;;;;;;;0.73;0.60;;;24.30;37.20;;;;;;5018739;28;20384;-60
2023/08/21 04:40:04;;;;;;;1.48;1.20;;;24.70;38.10;;;;;;5020735;28;20525;-59
2023/08/21 04:42:32;;;;;;;1.67;1.00;;;24.60;37.30;;;;;;5036818;28;20068;-60
2023/08/21 04:44:59;;;;;;;1.80;1.08;;;24.90;35.20;;;;;;5018904;28;20128;-59
2023/08/21 04:47:28;;;;;;;1.33;0.90;;;25.30;35.40;;;;;;5035582;28;20072;-60
2023/08/21 04:49:56;;;;;;;1.30;1.00;;;25.10;35.00;;;;;;5036649;28;20474;-58
2023/08/21 04:52:25;;;;;;;1.73;0.80;;;24.30;36.60;;;;;;5003029;28;20049;-58
2023/08/21 04:54:54;;;;;;;1.50;0.93;;;24.40;36.20;;;;;;5003036;28;20080;-58
2023/08/21 04:57:21;;;;;;;1.45;0.80;;;24.60;36.00;;;;;;5018982;28;20018;-59
2023/08/21 04:59:49;;;;;;;1.10;0.80;;;24.70;36.10;;;;;;5018928;28;20053;-60
2023/08/21 05:02:17;;;;;;;3.42;0.88;;;24.70;36.70;;;;;;5036214;28;20026;-59
2023/08/21 05:04:44;;;;;;;2.40;1.00;;;25.40;36.30;;;;;;5036411;28;20329;-60
2023/08/21 05:07:12;;;;;;;1.63;0.90;;;26.20;34.90;;;;;;5035324;28;20040;-59
2023/08/21 05:09:39;;;;;;;1.90;1.05;;;27.40;34.10;;;;;;5018790;28;20071;-59
2023/08/21 05:12:08;;;;;;;1.13;0.90;;;27.30;33.50;;;;;;5018667;28;20025;-59
2023/08/21 05:14:36;;;;;;;1.40;0.98;;;28.10;33.00;;;;;;5035929;28;20025;-60
2023/08/21 05:17:05;;;;;;;1.60;0.90;;;28.20;33.30;;;;;;5035607;28;20028;-60
2023/08/21 05:19:32;;;;;;;1.38;0.88;;;29.20;31.10;;;;;;5035870;28;20372;-59
2023/08/21 05:22:00;;;;;;;3.08;1.20;;;29.60;30.70;;;;;;5035028;28;20156;-59
2023/08/21 05:24:29;;;;;;;1.45;0.90;;;29.00;31.30;;;;;;5018350;28;20368;-59
2023/08/21 05:27:01;;;;;;;2.92;1.27;;;29.30;31.30;;;;;;5018684;28;20033;-60
2023/08/21 05:29:28;;;;;;;2.65;1.17;;;29.80;30.20;;;;;;5018650;28;20029;-59
2023/08/21 05:31:56;;;;;;;1.65;1.02;;;30.10;30.30;;;;;;5034741;28;20099;-59
2023/08/21 05:34:25;;;;;;;2.50;1.02;;;30.80;29.50;;;;;;5018335;28;20029;-60
2023/08/21 05:36:54;;;;;;;1.83;1.17;;;31.40;28.70;;;;;;5018277;28;20478;-59
2023/08/21 05:39:22;;;;;;;1.70;1.10;;;31.10;29.40;;;;;;5033650;28;20402;-59
2023/08/21 05:41:49;;;;;;;2.28;1.30;;;31.10;28.80;;;;;;5018180;28;20436;-60
2023/08/21 05:44:17;;;;;;;2.17;1.10;;;31.10;29.30;;;;;;5035627;28;20063;-59
2023/08/21 05:46:45;;;;;;;1.52;1.30;;;32.20;28.40;;;;;;5018247;28;20036;-59
2023/08/21 05:49:12;;;;;;;1.58;1.08;;;32.70;27.50;;;;;;5018012;28;20022;-60
2023/08/21 05:51:40;;;;;;;2.15;1.00;;;32.90;27.10;;;;;;5017869;28;20064;-59
2023/08/21 05:54:07;;;;;;;1.35;0.90;;;32.20;28.10;;;;;;5034852;28;20036;-61
2023/08/21 05:56:35;;;;;;;3.10;1.20;;;32.80;27.80;;;;;;5034626;28;20028;-60
2023/08/21 05:59:03;;;;;;;3.63;1.05;;;33.20;27.20;;;;;;5017345;28;20104;-60
2023/08/21 06:01:40;;;;;;;1.75;1.08;;;31.40;28.00;;;;;;5034889;28;20117;-61
2023/08/21 06:04:11;;;;;;;1.95;1.00;;;31.80;28.10;;;;;;5018428;28;20032;-59
2023/08/21 06:06:38;;;;;;;1.70;1.15;;;32.80;27.20;;;;;;5035307;28;20029;-65
2023/08/21 06:09:07;;;;;;;2.30;1.00;;;33.80;26.40;;;;;;5034479;28;20029;-65
2023/08/21 06:11:38;;;;;;;1.83;1.10;;;33.20;27.00;;;;;;5032856;28;20445;-65
2023/08/21 06:14:07;;;;;;;2.20;1.10;;;33.70;26.70;;;;;;5018808;28;20112;-65
2023/08/21 06:16:34;;;;;;;2.13;1.15;;;33.90;26.90;;;;;;5034644;28;20078;-64
2023/08/21 06:19:02;;;;;;;2.00;1.20;;;34.00;26.20;;;;;;5017265;28;20049;-60
2023/08/21 06:21:29;;;;;;;2.58;1.20;;;34.10;26.40;;;;;;5017611;28;20049;-61
2023/08/21 06:23:57;;;;;;;1.75;0.95;;;33.20;26.70;;;;;;5035038;28;20061;-60
2023/08/21 06:26:24;;;;;;;1.58;0.90;;;33.10;27.00;;;;;;5033829;28;20025;-60
2023/08/21 06:28:52;;;;;;;1.48;0.98;;;32.70;27.40;;;;;;5017033;28;20029;-61
2023/08/21 06:31:20;;;;;;;1.80;1.00;;;31.20;28.90;;;;;;5017140;28;20053;-61
2023/08/21 06:33:48;;;;;;;1.40;1.00;;;30.70;29.10;;;;;;5034823;28;20028;-61
2023/08/21 06:36:15;;;;;;;2.78;0.80;;;27.60;33.10;;;;;;5033576;28;20028;-61
2023/08/21 06:38:44;;;;;;;1.48;0.90;;;25.20;35.30;;;;;;5016806;28;20053;-60
2023/08/21 06:41:11;;;;;;;3.20;1.00;;;23.80;37.50;;;;;;5016502;28;20112;-61
2023/08/21 06:43:39;;;;;;;1.25;0.93;;;23.10;38.30;;;;;;5033218;28;20372;-60
2023/08/21 06:46:07;;;;;;;2.28;1.05;;;22.90;39.30;;;;;;5017187;28;20363;-60
2023/08/21 06:48:38;;;;;;;2.08;0.80;;;22.60;40.00;;;;;;5016965;28;20033;-60
2023/08/21 06:51:06;;;;;;;1.95;0.90;;;22.10;41.00;;;;;;5003872;28;20463;-65
2023/08/21 06:53:34;;;;;;;2.47;1.10;;;22.10;41.30;;;;;;5038511;28;20029;-66
2023/08/21 06:56:02;;;;;;;4.20;1.25;;;22.10;42.70;;;;;;5038546;28;20109;-64
2023/08/21 06:58:29;;;;;;;3.17;1.38;;;21.90;46.10;;;;;;5037379;28;20029;-64
2023/08/21 07:00:57;;;;;;;5.43;1.90;;;21.70;47.50;;;;;;5021071;28;20026;-65
2023/08/21 07:03:26;;;;;;;2.22;1.10;;;21.50;48.20;;;;;;5021110;28;20025;-65
2023/08/21 07:06:01;;;;;;;3.33;1.40;;;21.20;49.10;;;;;;5020827;28;20035;-65
2023/08/21 07:08:28;;;;;;;1.95;1.10;;;21.10;49.10;;;;;;5037103;28;20113;-64
2023/08/21 07:10:56;;;;;;;2.38;1.17;;;20.90;49.60;;;;;;5037329;28;20395;-64
2023/08/21 07:13:24;;;;;;;2.05;1.15;;;20.80;50.70;;;;;;5037018;28;20021;-61
2023/08/21 07:15:54;;;;;;;2.70;1.27;;;20.60;51.70;;;;;;5020890;28;20036;-61
2023/08/21 07:18:22;;;;;;;2.85;1.10;;;20.40;52.10;;;;;;5020800;28;20341;-60
2023/08/21 07:20:52;;;;;;;2.72;1.10;;;20.20;52.80;;;;;;5020688;28;20108;-60
2023/08/21 07:23:19;;;;;;;1.60;0.75;;;20.10;53.10;;;;;;5004355;28;20452;-60
2023/08/21 07:25:47;;;;;;;1.40;0.85;;;19.90;54.40;;;;;;5020735;28;20044;-60
2023/08/21 07:28:14;;;;;;;3.38;1.10;;;19.70;55.30;;;;;;5020613;28;20056;-61
2023/08/21 07:30:42;;;;;;;3.03;1.20;;;19.60;56.00;;;;;;5036885;28;20029;-61
2023/08/21 07:33:10;;;;;;;3.03;1.10;;;19.40;56.60;;;;;;5037814;28;20049;-61
2023/08/21 07:35:37;;;;;;;2.63;1.27;;;19.30;57.30;;;;;;5020442;28;20022;-61
2023/08/21 07:38:05;;;;;;;2.60;1.10;;;19.10;58.40;;;;;;5037807;28;20017;-61
2023/08/21 07:40:32;;;;;;;3.03;1.30;;;19.10;58.90;;;;;;5020452;28;20072;-62
2023/08/21 07:43:00;;;;;;;2.28;1.27;;;19.00;59.60;;;;;;5020288;28;20032;-59
2023/08/21 07:45:27;;;;;;;3.10;1.40;;;18.80;59.90;;;;;;5020221;28;20363;-60
2023/08/21 07:47:55;;;;;;;2.55;1.23;;;18.70;60.60;;;;;;5020171;28;20021;-60
2023/08/21 07:50:22;;;;;;;3.35;1.40;;;18.60;61.40;;;;;;5037640;28;20049;-60
2023/08/21 07:52:50;;;;;;;5.25;1.90;;;18.40;61.90;;;;;;5020135;28;20029;-60
2023/08/21 07:55:18;;;;;;;3.63;1.20;;;18.30;62.20;;;;;;5020268;28;20022;-60
2023/08/21 07:57:45;;;;;;;2.47;1.30;;;18.30;62.20;;;;;;5036409;28;20063;-60
2023/08/21 08:00:14;;;;;;;3.03;1.30;;;18.20;62.40;;;;;;5036412;28;20025;-60
2023/08/21 08:02:43;;;;;;;2.58;1.40;;;18.10;62.50;;;;;;5035421;28;20021;-60
2023/08/21 08:05:10;;;;;;;2.75;1.30;;;18.10;62.60;;;;;;5020065;28;20022;-60
2023/08/21 08:07:38;;;;;;;4.30;1.70;;;18.10;62.70;;;;;;5037315;28;20355;-61
2023/08/21 08:10:06;;;;;;;1.98;1.35;;;18.00;62.30;;;;;;5019940;28;20025;-60
2023/08/21 08:12:33;;;;;;;3.13;1.67;;;17.90;62.50;;;;;;5036106;28;20072;-61
2023/08/21 08:15:00;;;;;;;3.47;1.38;;;17.80;62.60;;;;;;5019629;28;20470;-61
2023/08/21 08:17:29;;;;;;;2.67;1.40;;;17.60;62.60;;;;;;5036080;28;20025;-61
2023/08/21 08:19:56;;;;;;;2.38;1.30;;;17.50;62.90;;;;;;5036947;28;20041;-61
2023/08/21 08:22:24;;;;;;;2.55;1.33;;;17.40;63.10;;;;;;5019637;28;20348;-60
2023/08/21 08:24:51;;;;;;;4.15;1.98;;;17.30;63.20;;;;;;5036003;28;20021;-62
2023/08/21 08:27:19;;;;;;;2.80;1.40;;;17.40;63.30;;;;;;5036002;28;20034;-60
2023/08/21 08:29:46;;;;;;;3.05;1.52;;;17.30;63.30;;;;;;5037172;28;20278;-65
2023/08/21 08:32:14;;;;;;;2.75;1.48;;;17.30;63.30;;;;;;5035845;28;20077;-65
2023/08/21 08:34:41;;;;;;;3.70;1.30;;;17.20;63.10;;;;;;5035030;28;20456;-65
2023/08/21 08:37:10;;;;;;;2.42;1.50;;;17.10;63.00;;;;;;5036173;28;20435;-65
2023/08/21 08:39:40;;;;;;;2.42;1.20;;;17.10;63.20;;;;;;5036213;28;20024;-60
2023/08/21 08:42:08;;;;;;;1.67;1.27;;;17.00;63.10;;;;;;5036325;28;20039;-60
2023/08/21 08:44:38;;;;;;;2.53;1.30;;;17.00;63.30;;;;;;5036646;28;20022;-60
2023/08/21 08:47:09;;;;;;;3.00;1.40;;;16.90;63.50;;;;;;5003334;28;20025;-61
2023/08/21 08:49:37;;;;;;;2.78;1.65;;;16.80;63.40;;;;;;5017912;28;20471;-61
2023/08/21 08:52:05;;;;;;;1.92;1.30;;;16.80;63.60;;;;;;5019108;28;20037;-61
2023/08/21 08:54:37;;;;;;;3.15;1.42;;;16.80;63.80;;;;;;5036424;28;20033;-60
2023/08/21 08:57:05;;;;;;;3.17;1.35;;;16.70;63.90;;;;;;5019774;28;20022;-60
2023/08/21 08:59:33;;;;;;;3.03;1.30;;;16.60;63.70;;;;;;5035225;28;20026;-60
2023/08/21 09:02:00;;;;;;;3.65;1.38;;;16.60;64.00;;;;;;5036235;28;20036;-61
2023/08/21 09:04:28;;;;;;;2.78;1.42;;;16.60;63.80;;;;;;5034844;28;20457;-60
2023/08/21 09:07:17;;;;;;;4.03;1.45;;;16.60;63.70;;;;;;5035221;28;20025;-61
2023/08/21 09:09:50;;;;;;;2.88;1.55;;;16.60;63.90;;;;;;5018457;28;20039;-60
2023/08/21 09:12:18;;;;;;;2.45;1.52;;;16.50;63.90;;;;;;5018243;28;20025;-61
2023/08/21 09:14:46;;;;;;;2.80;1.60;;;16.50;63.80;;;;;;5035968;28;20025;-61
2023/08/21 09:17:14;;;;;;;3.58;1.90;;;16.50;64.00;;;;;;5035033;28;20025;-61
2023/08/21 09:19:42;;;;;;;2.08;1.45;;;16.40;63.90;;;;;;5015017;28;20053;-61
2023/08/21 09:22:10;;;;;;;3.97;1.30;;;16.40;64.20;;;;;;5031716;28;20049;-61
2023/08/21 09:24:39;;;;;;;3.03;1.60;;;16.30;64.40;;;;;;5015179;28;20084;-61
2023/08/21 09:27:18;;;;;;;2.70;1.52;;;16.30;64.30;;;;;;5031647;28;20033;-60
2023/08/21 09:29:48;;;;;;;2.40;1.40;;;16.20;64.40;;;;;;5015105;28;20079;-61
2023/08/21 09:32:15;;;;;;;3.13;1.73;;;16.10;64.70;;;;;;5031510;28;20040;-61
2023/08/21 09:34:43;;;;;;;2.42;1.50;;;16.10;65.00;;;;;;5031302;28;20033;-62
2023/08/21 09:37:11;;;;;;;3.10;1.55;;;16.00;65.50;;;;;;5015889;28;20018;-61
2023/08/21 09:39:39;;;;;;;1.92;1.40;;;15.80;65.80;;;;;;5031300;28;20025;-61
2023/08/21 09:42:08;;;;;;;3.00;1.90;;;15.80;66.00;;;;;;5031324;28;20380;-60
2023/08/21 09:44:43;;;;;;;4.15;2.30;;;15.70;66.30;;;;;;5031232;28;20037;-60
2023/08/21 09:47:11;;;;;;;3.70;1.85;;;15.80;66.10;;;;;;5031212;28;20130;-61
2023/08/21 09:49:40;;;;;;;3.60;1.80;;;15.80;66.00;;;;;;5031118;28;20224;-61
2023/08/21 09:52:11;;;;;;;4.35;1.77;;;15.80;65.90;;;;;;5031191;28;20455;-61
2023/08/21 09:54:43;;;;;;;3.67;1.90;;;15.70;66.10;;;;;;5015674;28;20180;-61
2023/08/21 09:57:12;;;;;;;3.42;1.80;;;15.60;66.40;;;;;;5015729;28;20105;-61
2023/08/21 09:59:42;;;;;;;4.47;2.55;;;15.50;66.60;;;;;;5031008;28;20019;-60
2023/08/21 10:02:11;;;;;;;5.07;2.20;;;15.50;67.20;;;;;;5031131;28;20064;-61
2023/08/21 10:04:41;;;;;;;3.35;1.90;;;15.40;67.50;;;;;;5030948;28;20037;-62
2023/08/21 10:07:10;;;;;;;3.70;2.00;;;15.30;67.70;;;;;;5014570;28;20444;-62
2023/08/21 10:09:42;;;;;;;5.22;2.88;;;15.30;68.10;;;;;;5030794;28;20476;-61
2023/08/21 10:12:11;;;;;;;4.22;1.98;;;15.20;68.50;;;;;;5015516;28;20030;-62
2023/08/21 10:14:39;;;;;;;2.88;1.92;;;15.20;68.60;;;;;;5030820;28;20080;-61
2023/08/21 10:17:08;;;;;;;3.85;1.98;;;15.10;68.80;;;;;;5030786;28;20373;-62
2023/08/21 10:19:38;;;;;;;3.95;1.83;;;15.10;68.90;;;;;;5030562;28;20133;-61
2023/08/21 10:22:05;;;;;;;3.38;2.10;;;15.10;69.10;;;;;;5030769;28;20044;-61
2023/08/21 10:24:39;;;;;;;4.22;2.20;;;15.00;69.10;;;;;;5014711;28;20452;-62
2023/08/21 10:27:11;;;;;;;3.22;1.85;;;15.10;68.60;;;;;;5030793;28;20045;-61
2023/08/21 10:29:40;;;;;;;3.05;1.85;;;15.00;69.00;;;;;;5030594;28;20034;-62
2023/08/21 10:32:07;;;;;;;4.63;2.05;;;15.00;69.40;;;;;;5030614;28;20117;-61
2023/08/21 10:34:37;;;;;;;3.42;2.20;;;15.00;69.70;;;;;;5030547;28;20026;-63
2023/08/21 10:37:10;;;;;;;2.78;2.08;;;14.90;70.50;;;;;;5031304;28;20025;-62
2023/08/21 10:39:39;;;;;;;;;;;14.80;70.80;;;;;;5031066;28;20025;-61
2023/08/21 10:42:14;;;;;;;4.28;2.10;;;14.70;70.90;;;;;;5014213;28;19920;-61
2023/08/21 10:45:00;;;;;;;4.78;2.15;;;14.80;70.80;;;;;;5030540;28;20032;-61
2023/08/21 10:47:31;;;;;;;4.68;2.20;;;14.80;70.40;;;;;;5015174;28;20096;-61
2023/08/21 10:50:05;;;;;;;3.97;2.30;;;14.80;70.70;;;;;;5030287;28;20042;-61
2023/08/21 10:52:39;;;;;;;3.67;2.30;;;14.70;71.40;;;;;;5030352;28;20101;-60
2023/08/21 10:55:09;;;;;;;5.38;2.25;;;14.60;71.40;;;;;;5014971;28;20387;-61
2023/08/21 10:57:38;;;;;;;5.05;2.40;;;14.50;71.70;;;;;;5030367;28;20456;-61
2023/08/21 11:00:11;;;;;;;4.35;2.30;;;14.40;72.90;;;;;;5030394;28;20172;-61
2023/08/21 11:02:41;;;;;;;5.47;2.97;;;14.30;72.70;;;;;;5030280;28;20099;-61
2023/08/21 11:05:10;;;;;;;4.95;4.40;;;14.30;73.00;;;;;;5030316;28;20442;-61
2023/08/21 11:07:39;;;;;;;7.97;6.20;;;14.30;73.00;;;;;;5014806;28;20065;-61
2023/08/21 11:10:10;;;;;;;6.65;5.53;;;14.20;73.80;;;;;;5014878;28;20508;-62
2023/08/21 11:12:38;;;;;;;6.60;4.20;;;14.10;74.50;;;;;;5030236;28;20033;-61
2023/08/21 11:15:07;;;;;;;5.55;3.47;;;14.10;74.30;;;;;;5030285;28;20033;-62
2023/08/21 11:17:35;;;;;;;5.30;3.80;;;13.90;74.50;;;;;;5014802;28;20511;-61
2023/08/21 11:20:04;;;;;;;4.13;3.03;;;13.90;74.20;;;;;;5030048;28;20061;-60
2023/08/21 11:22:33;;;;;;;5.70;3.10;;;13.90;74.90;;;;;;5030134;28;20026;-62
2023/08/21 11:25:01;;;;;;;4.40;2.50;;;13.50;76.10;;;;;;5014760;28;20101;-62
2023/08/21 11:27:28;;;;;;;3.72;2.55;;;13.30;76.70;;;;;;5030066;28;20107;-62
2023/08/21 11:29:56;;;;;;;4.55;2.33;;;13.30;77.20;;;;;;5030149;28;20030;-62
2023/08/21 11:32:24;;;;;;;4.53;2.20;;;13.30;77.10;;;;;;5030020;28;20026;-62
2023/08/21 11:34:59;;;;;;;4.85;2.55;;;13.30;77.00;;;;;;5029977;28;20041;-61
2023/08/21 11:37:27;;;;;;;6.30;2.50;;;13.30;76.50;;;;;;5033003;28;20436;-62
2023/08/21 11:39:59;;;;;;;4.68;2.58;;;13.40;75.90;;;;;;5018100;28;20338;-62
2023/08/21 11:42:34;;;;;;;5.90;3.05;;;13.40;75.30;;;;;;5018124;28;20084;-62
2023/08/21 11:45:03;;;;;;;5.65;3.00;;;13.40;75.20;;;;;;5001143;28;20117;-62
2023/08/21 11:47:35;;;;;;;4.38;2.50;;;13.40;75.20;;;;;;5033574;28;20064;-61
2023/08/21 11:50:09;;;;;;;4.00;2.45;;;13.10;76.50;;;;;;5017218;28;20464;-62
2023/08/21 11:52:38;;;;;;;4.90;2.90;;;12.90;77.70;;;;;;5033099;28;20033;-61
2023/08/21 11:55:10;;;;;;;3.70;2.20;;;12.60;78.60;;;;;;5033498;28;20069;-61
2023/08/21 11:57:58;;;;;;;4.43;2.88;;;12.40;79.70;;;;;;5000742;28;20022;-61
2023/08/21 12:00:30;;;;;;;5.55;2.30;;;12.30;80.40;;;;;;5016905;28;20025;-61
2023/08/21 12:02:59;;;;;;;5.38;2.67;;;12.50;80.00;;;;;;5017905;28;20448;-62
2023/08/21 12:05:28;;;;;;;3.70;2.50;;;12.50;79.70;;;;;;5033131;28;20349;-62
2023/08/21 12:07:56;;;;;;;4.43;2.28;;;12.60;79.50;;;;;;5016686;28;20032;-62
2023/08/21 12:10:28;;;;;;;4.05;2.38;;;12.70;78.90;;;;;;5033110;28;20467;-61
2023/08/21 12:12:57;;;;;;;5.00;2.28;;;12.70;78.50;;;;;;5033089;28;20076;-62
2023/08/21 12:15:24;;;;;;;4.32;2.40;;;12.70;78.50;;;;;;5017230;28;20037;-61
2023/08/21 12:17:52;;;;;;;3.58;2.35;;;12.70;78.50;;;;;;5017474;28;20322;-60
2023/08/21 12:20:19;;;;;;;6.90;3.20;;;12.70;78.40;;;;;;5032738;28;20092;-61
2023/08/21 12:22:47;;;;;;;5.80;2.90;;;12.70;78.10;;;;;;5032916;28;20049;-61
2023/08/21 12:25:16;;;;;;;6.22;2.90;;;12.70;78.00;;;;;;5032895;28;20049;-62
2023/08/21 12:27:44;;;;;;;4.93;3.05;;;12.60;78.70;;;;;;5032883;28;20018;-62
2023/08/21 12:30:12;;;;;;;4.32;2.70;;;12.40;79.10;;;;;;5016242;28;20018;-61
2023/08/21 12:32:40;;;;;;;4.78;3.00;;;12.20;79.80;;;;;;5016988;28;20014;-61
2023/08/21 12:35:11;;;;;;;3.22;2.80;;;11.90;81.40;;;;;;5032633;28;20462;-61
2023/08/21 12:37:39;;;;;;;3.73;2.50;;;11.90;81.60;;;;;;5017069;28;20440;-61
2023/08/21 12:40:08;;;;;;;3.88;2.83;;;12.00;80.80;;;;;;5017057;28;20033;-61
2023/08/21 12:42:36;;;;;;;4.93;2.80;;;11.90;81.20;;;;;;5017052;28;20052;-61
2023/08/21 12:45:05;;;;;;;6.43;3.00;;;12.00;80.10;;;;;;5032463;28;20075;-62
2023/08/21 12:47:33;;;;;;;5.22;2.92;;;12.10;79.90;;;;;;5015424;28;20552;-61
2023/08/21 12:50:00;;;;;;;3.78;2.72;;;12.20;79.60;;;;;;5032362;28;20029;-61
2023/08/21 12:52:28;;;;;;;4.75;2.55;;;12.30;79.10;;;;;;5032285;28;20022;-62
2023/08/21 12:54:55;;;;;;;4.50;2.80;;;12.20;79.60;;;;;;5015695;28;20101;-61
2023/08/21 12:57:23;;;;;;;4.15;2.58;;;12.20;79.00;;;;;;5016726;28;20380;-62